Current Conditions
Light Rain
Showers



Pressure
29.51 (inHG) - 999.32 (mb)
Visibility

5.0 (mimiles) - 8.0 (km)
   Temperature
72  °F
22°C
70  °F
Dewpoint
94  %
 Humidity
   Wind Speed
5  mph
4  kts
8  km/h
2.2  m/s
   Wind Direction
 190°
Due South
   Airport Data
KAVP
Location Wilkes-Barre / Scranton International 10 mi (16.09 km)
Metar :KAVP 202254Z 19004KT 5SM -RA BR FEW049 SCT070 OVC090 22/21 A2951 RMK AO2 RAE2158B20 SLP985 P0002 T02220206
Thu 20th June 18:54 pm
   Raw Metar Info
Raw METAR is the most common format in the world for the transmission of observational weather data. It is highly standardized through the International Civil Aviation Organization (ICAO), which allows it to be understood throughout most of the world.
   API Info
Data Provided by
https://www.checkwx.com/weather/KAVP
   © Info
CSS/SVG/PHP scripts were developed by weather34.com for use in the weather34 template © 2015-2019

Guide Info provided by Metar-Wikipedia